createdAt,value
2023-01-18T00:01:50.405Z,7.07
2023-01-18T00:04:23.325Z,7.10
2023-01-18T00:06:57.437Z,7.13
2023-01-18T00:09:30.578Z,7.15
2023-01-18T00:12:03.126Z,7.17
2023-01-18T00:14:35.764Z,7.20
2023-01-18T00:17:08.390Z,7.23
2023-01-18T00:19:40.855Z,7.24
2023-01-18T00:22:13.321Z,7.27
2023-01-18T00:24:45.696Z,7.27
2023-01-18T00:27:18.139Z,7.30
2023-01-18T00:29:51.357Z,7.33
2023-01-18T00:32:23.866Z,7.37
2023-01-18T00:34:56.385Z,7.38
2023-01-18T00:37:29.562Z,7.40
2023-01-18T00:40:01.937Z,7.41
2023-01-18T00:42:53.082Z,7.43
2023-01-18T00:45:25.516Z,7.43
2023-01-18T00:47:58.589Z,7.44
2023-01-18T00:50:31.368Z,7.45
2023-01-18T00:53:03.854Z,7.45
2023-01-18T00:55:36.341Z,7.46
2023-01-18T00:58:09.334Z,7.45
2023-01-18T01:00:42.669Z,7.46
2023-01-18T01:03:15.555Z,7.45
2023-01-18T01:06:05.599Z,7.47
2023-01-18T01:08:38.283Z,7.45
2023-01-18T01:11:13.155Z,7.43
2023-01-18T01:14:03.957Z,7.43
2023-01-18T01:16:55.236Z,7.44
2023-01-18T01:19:45.324Z,7.43
2023-01-18T01:22:35.519Z,7.41
2023-01-18T01:25:26.251Z,7.40
2023-01-18T01:27:58.864Z,7.39
2023-01-18T01:30:31.839Z,7.39
2023-01-18T01:33:04.560Z,7.40
2023-01-18T01:35:38.133Z,7.42
2023-01-18T01:38:11.227Z,7.42
2023-01-18T01:40:43.960Z,7.45
2023-01-18T01:43:16.482Z,7.45
2023-01-18T01:45:50.082Z,7.45
2023-01-18T01:48:22.810Z,7.43
2023-01-18T01:50:55.208Z,7.44
2023-01-18T01:53:27.719Z,7.45
2023-01-18T01:56:00.262Z,7.43
2023-01-18T01:58:33.145Z,7.42
2023-01-18T02:01:06.020Z,7.42
2023-01-18T02:03:40.226Z,7.41
2023-01-18T02:06:19.240Z,7.40
2023-01-18T02:08:52.071Z,7.38
2023-01-18T02:11:25.510Z,7.33
2023-01-18T02:14:01.496Z,7.33
2023-01-18T02:17:07.270Z,7.33
2023-01-18T02:20:11.082Z,7.30
2023-01-18T02:23:15.573Z,7.30
2023-01-18T02:26:19.609Z,7.27
2023-01-18T02:28:59.301Z,7.25
2023-01-18T02:31:38.513Z,7.23
2023-01-18T02:34:24.349Z,7.25
2023-01-18T02:37:08.262Z,7.26
2023-01-18T02:40:14.056Z,7.26
2023-01-18T02:43:04.669Z,7.25
2023-01-18T02:45:59.946Z,7.23
2023-01-18T02:48:41.863Z,7.22
2023-01-18T02:51:14.227Z,7.22
2023-01-18T02:53:47.315Z,7.24
2023-01-18T02:56:34.631Z,7.25
2023-01-18T02:59:17.999Z,7.28
2023-01-18T03:01:59.944Z,7.27
2023-01-18T03:04:49.589Z,7.26
2023-01-18T03:07:32.068Z,7.26
2023-01-18T03:10:08.101Z,7.27
2023-01-18T03:13:02.601Z,7.29
2023-01-18T03:15:52.712Z,7.32
2023-01-18T03:18:32.708Z,7.33
2023-01-18T03:21:05.724Z,7.35
2023-01-18T03:23:41.179Z,7.35
2023-01-18T03:26:18.940Z,7.36
2023-01-18T03:29:14.471Z,7.37
2023-01-18T03:32:15.042Z,7.37
2023-01-18T03:34:55.023Z,7.42
2023-01-18T03:37:39.741Z,7.46
2023-01-18T03:40:19.565Z,7.49
2023-01-18T03:43:15.003Z,7.50
2023-01-18T03:45:49.539Z,7.49
2023-01-18T03:48:22.006Z,7.48
2023-01-18T03:51:19.067Z,7.49
2023-01-18T03:54:27.157Z,7.47
2023-01-18T03:57:22.705Z,7.47
2023-01-18T03:59:55.031Z,7.45
2023-01-18T04:02:28.513Z,7.46
2023-01-18T04:05:02.821Z,7.47
2023-01-18T04:07:35.544Z,7.47
2023-01-18T04:10:08.587Z,7.48
2023-01-18T04:12:40.973Z,7.49
2023-01-18T04:15:13.572Z,7.52
2023-01-18T04:17:48.237Z,7.53
2023-01-18T04:20:21.066Z,7.53
2023-01-18T04:22:54.857Z,7.55
2023-01-18T04:25:27.570Z,7.55
2023-01-18T04:28:00.115Z,7.57
2023-01-18T04:30:32.662Z,7.55
2023-01-18T04:33:05.105Z,7.56
2023-01-18T04:35:37.867Z,7.55
2023-01-18T04:38:10.417Z,7.54
2023-01-18T04:40:43.180Z,7.53
2023-01-18T04:43:15.589Z,7.51
2023-01-18T04:45:57.606Z,7.50
2023-01-18T04:48:29.962Z,7.48
2023-01-18T04:51:02.451Z,7.50
2023-01-18T04:53:36.574Z,7.52
2023-01-18T04:56:09.214Z,7.52
2023-01-18T04:58:41.734Z,7.51
2023-01-18T05:01:14.585Z,7.49
2023-01-18T05:03:47.283Z,7.50
2023-01-18T05:06:22.932Z,7.50
2023-01-18T05:08:55.582Z,7.51
2023-01-18T05:11:28.119Z,7.50
2023-01-18T05:14:00.685Z,7.53
2023-01-18T05:16:33.226Z,7.54
2023-01-18T05:19:05.964Z,7.54
2023-01-18T05:21:38.541Z,7.53
2023-01-18T05:24:11.844Z,7.53
2023-01-18T05:26:45.380Z,7.54
2023-01-18T05:29:18.261Z,7.56
2023-01-18T05:31:51.309Z,7.58
2023-01-18T05:34:23.682Z,7.60
2023-01-18T05:36:56.023Z,7.61
2023-01-18T05:39:28.507Z,7.62
2023-01-18T05:42:01.295Z,7.62
2023-01-18T05:44:34.898Z,7.62
2023-01-18T05:47:07.366Z,7.59
2023-01-18T05:49:41.833Z,7.58
2023-01-18T05:52:14.105Z,7.59
2023-01-18T05:54:46.952Z,7.59
2023-01-18T05:57:19.552Z,7.58
2023-01-18T05:59:53.613Z,7.57
2023-01-18T06:02:26.976Z,7.55
2023-01-18T06:04:59.313Z,7.54
2023-01-18T06:07:31.644Z,7.55
2023-01-18T06:10:04.387Z,7.56
2023-01-18T06:12:36.988Z,7.54
2023-01-18T06:15:10.561Z,7.55
2023-01-18T06:17:43.817Z,7.56
2023-01-18T06:20:16.304Z,7.56
2023-01-18T06:22:48.726Z,7.57
2023-01-18T06:25:22.137Z,7.57
2023-01-18T06:27:56.505Z,7.57
2023-01-18T06:30:29.089Z,7.56
2023-01-18T06:33:04.333Z,7.58
2023-01-18T06:35:37.348Z,7.60
2023-01-18T06:38:09.849Z,7.62
2023-01-18T06:40:42.990Z,7.62
2023-01-18T06:43:16.097Z,7.64
2023-01-18T06:45:54.660Z,7.67
2023-01-18T06:48:27.525Z,7.67
2023-01-18T06:51:00.274Z,7.69
2023-01-18T06:53:33.309Z,7.71
2023-01-18T06:56:07.840Z,7.72
2023-01-18T06:58:40.375Z,7.74
2023-01-18T07:01:12.991Z,7.75
2023-01-18T07:03:45.526Z,7.78
2023-01-18T07:06:18.080Z,7.78
2023-01-18T07:08:50.982Z,7.78
2023-01-18T07:11:23.570Z,7.79
2023-01-18T07:13:56.152Z,7.81
2023-01-18T07:16:30.292Z,7.82
2023-01-18T07:19:04.405Z,7.85
2023-01-18T07:21:36.517Z,7.88
2023-01-18T07:24:08.812Z,7.90
2023-01-18T07:26:41.377Z,7.91
2023-01-18T07:29:14.879Z,7.92
2023-01-18T07:31:47.456Z,7.95
2023-01-18T07:34:20.044Z,7.96
2023-01-18T07:36:52.761Z,7.97
2023-01-18T07:39:25.194Z,7.98
2023-01-18T07:41:58.209Z,8.01
2023-01-18T07:44:30.593Z,8.02
2023-01-18T07:47:02.932Z,8.05
2023-01-18T07:49:35.350Z,8.07
2023-01-18T07:52:08.329Z,8.08
2023-01-18T07:54:40.674Z,8.10
2023-01-18T07:57:13.612Z,8.13
2023-01-18T07:59:46.143Z,8.15
2023-01-18T08:02:18.626Z,8.16
2023-01-18T08:04:51.773Z,8.20
2023-01-18T08:07:24.406Z,8.22
2023-01-18T08:09:58.159Z,8.24
2023-01-18T08:12:30.773Z,8.25
2023-01-18T08:15:04.595Z,8.29
2023-01-18T08:17:37.832Z,8.33
2023-01-18T08:20:11.563Z,8.35
2023-01-18T08:22:44.135Z,8.34
2023-01-18T08:25:17.582Z,8.32
2023-01-18T08:27:50.191Z,8.33
2023-01-18T08:30:23.866Z,8.35
2023-01-18T08:32:59.204Z,8.38
2023-01-18T08:35:34.832Z,8.40
2023-01-18T08:38:07.436Z,8.45
2023-01-18T08:40:40.677Z,8.47
2023-01-18T08:43:13.584Z,8.49
2023-01-18T08:45:47.721Z,8.53
2023-01-18T08:48:20.152Z,8.54
2023-01-18T08:50:52.697Z,8.57
2023-01-18T08:53:25.712Z,8.59
2023-01-18T08:55:58.263Z,8.63
2023-01-18T08:58:33.441Z,8.64
2023-01-18T09:01:09.517Z,8.68
2023-01-18T09:03:42.658Z,8.71
2023-01-18T09:06:16.873Z,8.73
2023-01-18T09:08:53.206Z,8.75
2023-01-18T09:11:27.015Z,8.80
2023-01-18T09:14:01.495Z,8.79
2023-01-18T09:16:34.121Z,8.82
2023-01-18T09:19:07.378Z,8.82
2023-01-18T09:21:40.476Z,8.82
2023-01-18T09:24:13.250Z,8.81
2023-01-18T09:26:47.315Z,8.84
2023-01-18T09:29:19.992Z,8.89
2023-01-18T09:31:54.085Z,8.95
2023-01-18T09:34:26.430Z,9.01
2023-01-18T09:36:58.743Z,9.07
2023-01-18T09:39:40.218Z,9.15
2023-01-18T09:42:05.577Z,9.23
2023-01-18T09:44:42.590Z,9.31
2023-01-18T09:47:25.057Z,9.37
2023-01-18T09:49:59.551Z,9.42
2023-01-18T09:52:45.206Z,9.51
2023-01-18T09:55:24.982Z,9.54
2023-01-18T09:58:46.317Z,9.58
2023-01-18T10:01:22.895Z,9.61
2023-01-18T10:04:06.855Z,9.62
2023-01-18T10:07:09.481Z,9.62
2023-01-18T10:09:43.503Z,9.62
2023-01-18T10:12:35.462Z,9.61
2023-01-18T10:15:28.557Z,9.61
2023-01-18T10:18:01.196Z,9.59
2023-01-18T10:20:44.080Z,9.59
2023-01-18T10:23:42.659Z,9.61
2023-01-18T10:26:22.293Z,9.61
2023-01-18T10:29:13.057Z,9.61
2023-01-18T10:32:08.122Z,9.64
2023-01-18T10:34:45.049Z,9.64
2023-01-18T10:37:38.476Z,9.64
2023-01-18T10:40:12.736Z,9.68
2023-01-18T10:42:56.978Z,9.69
2023-01-18T10:45:31.897Z,9.69
2023-01-18T10:48:28.170Z,9.71
2023-01-18T10:51:06.133Z,9.74
2023-01-18T10:53:39.963Z,9.75
2023-01-18T10:56:21.945Z,9.77
2023-01-18T10:58:59.327Z,9.77
2023-01-18T11:01:34.873Z,9.79
2023-01-18T11:04:32.478Z,9.80
2023-01-18T11:07:05.509Z,9.81
2023-01-18T11:10:00.883Z,9.80
2023-01-18T11:12:47.234Z,9.84
2023-01-18T11:15:24.159Z,9.86
2023-01-18T11:18:06.320Z,9.88
2023-01-18T11:20:52.979Z,9.89
2023-01-18T11:23:38.477Z,9.91
2023-01-18T11:26:20.136Z,9.93
2023-01-18T11:29:05.873Z,9.97
2023-01-18T11:31:48.765Z,9.99
2023-01-18T11:34:47.024Z,10.02
2023-01-18T11:37:34.583Z,10.04
2023-01-18T11:40:32.470Z,10.06
2023-01-18T11:43:23.941Z,10.09
2023-01-18T11:46:20.927Z,10.13
2023-01-18T11:49:00.757Z,10.15
2023-01-18T11:51:39.609Z,10.17
2023-01-18T11:54:18.461Z,10.20
2023-01-18T11:56:55.702Z,10.21
2023-01-18T11:59:52.439Z,10.22
2023-01-18T12:02:57.357Z,10.24
2023-01-18T12:06:04.424Z,10.25
2023-01-18T12:09:03.782Z,10.27
2023-01-18T12:11:52.759Z,10.27
2023-01-18T12:15:13.887Z,10.27
2023-01-18T12:18:13.041Z,10.30
2023-01-18T12:20:56.218Z,10.33
2023-01-18T12:23:42.479Z,10.37
2023-01-18T12:26:28.626Z,10.41
2023-01-18T12:29:34.651Z,10.46
2023-01-18T12:32:19.032Z,10.52
2023-01-18T12:35:26.298Z,10.55
2023-01-18T12:38:29.978Z,10.59
2023-01-18T12:41:45.085Z,10.64
2023-01-18T12:44:45.033Z,10.66
2023-01-18T12:47:39.701Z,10.68
2023-01-18T12:50:31.021Z,10.70
2023-01-18T12:53:20.202Z,10.69
2023-01-18T12:55:54.892Z,10.68
2023-01-18T12:58:27.974Z,10.69
2023-01-18T13:01:03.925Z,10.70
2023-01-18T16:14:38.484Z,11.35
2023-01-18T16:17:18.231Z,11.30
2023-01-18T16:19:52.661Z,11.27
2023-01-18T16:22:37.272Z,11.25
2023-01-18T16:25:21.230Z,11.24
2023-01-18T16:27:55.587Z,11.26
2023-01-18T16:30:39.596Z,11.25
2023-01-18T16:33:20.977Z,11.26
2023-01-18T16:35:53.357Z,11.25
2023-01-18T16:38:25.875Z,11.27
2023-01-18T16:40:58.385Z,11.28
2023-01-18T16:43:30.838Z,11.28
2023-01-18T16:46:04.676Z,11.27
2023-01-18T16:48:37.882Z,11.27
2023-01-18T16:51:16.807Z,11.27
2023-01-18T16:53:49.619Z,11.26
2023-01-18T16:56:22.398Z,11.25
2023-01-18T16:58:55.144Z,11.23
2023-01-18T17:01:27.856Z,11.24
2023-01-18T17:04:00.378Z,11.24
2023-01-18T17:06:33.535Z,11.25
2023-01-18T17:09:25.120Z,11.24
2023-01-18T17:11:58.068Z,11.26
2023-01-18T17:14:30.366Z,11.25
2023-01-18T17:17:02.792Z,11.22
2023-01-18T17:19:37.273Z,11.22
2023-01-18T17:22:09.652Z,11.23
2023-01-18T17:24:42.079Z,11.26
2023-01-18T17:27:14.874Z,11.27
2023-01-18T17:29:47.431Z,11.27
2023-01-18T17:32:19.825Z,11.30
2023-01-18T17:34:52.679Z,11.32
2023-01-18T17:37:24.987Z,11.32
2023-01-18T17:40:12.058Z,11.33
2023-01-18T17:42:32.486Z,11.35
2023-01-18T17:45:06.679Z,11.37
2023-01-18T17:47:42.355Z,11.40
2023-01-18T17:50:17.590Z,11.40
2023-01-18T17:52:49.897Z,11.37
2023-01-18T17:55:27.431Z,11.36
2023-01-18T17:57:56.337Z,11.36
2023-01-18T18:00:29.180Z,11.36
2023-01-18T18:03:02.266Z,11.35
2023-01-18T18:05:34.931Z,11.37
2023-01-18T18:08:08.151Z,11.37
2023-01-18T18:10:44.183Z,11.34
2023-01-18T18:13:16.771Z,11.35
2023-01-18T18:15:50.805Z,11.33
2023-01-18T18:18:23.906Z,11.31
2023-01-18T18:21:01.625Z,11.28
2023-01-18T18:23:34.308Z,11.27
2023-01-18T18:26:06.831Z,11.28
2023-01-18T18:28:40.318Z,11.27
2023-01-18T18:31:17.738Z,11.23
2023-01-18T18:33:51.211Z,11.21
2023-01-18T18:36:25.299Z,11.21
2023-01-18T18:38:57.635Z,11.22
2023-01-18T18:41:30.024Z,11.24
2023-01-18T18:44:02.917Z,11.23
2023-01-18T18:46:35.343Z,11.25
2023-01-18T18:49:08.129Z,11.27
2023-01-18T18:51:40.568Z,11.26
2023-01-18T18:54:13.246Z,11.27
2023-01-18T18:56:45.610Z,11.26
2023-01-18T18:59:17.933Z,11.27
2023-01-18T19:01:51.946Z,11.29
2023-01-18T19:04:35.982Z,11.32
2023-01-18T19:07:08.777Z,11.34
2023-01-18T19:09:41.087Z,11.33
2023-01-18T19:12:13.492Z,11.34
2023-01-18T19:14:45.994Z,11.32
2023-01-18T19:17:29.384Z,11.30
2023-01-18T19:19:53.191Z,11.27
2023-01-18T19:22:25.579Z,11.25
2023-01-18T19:24:57.906Z,11.24
2023-01-18T19:27:31.378Z,11.24
2023-01-18T19:30:03.702Z,11.24
2023-01-18T19:32:36.280Z,11.23
2023-01-18T19:35:09.198Z,11.22
2023-01-18T19:37:41.792Z,11.22
2023-01-18T19:40:15.816Z,11.20
2023-01-18T19:42:52.227Z,11.21
2023-01-18T19:45:28.803Z,11.19
2023-01-18T19:48:01.987Z,11.18
2023-01-18T19:50:33.937Z,11.18
2023-01-18T19:53:06.226Z,11.17
2023-01-18T19:55:42.240Z,11.14
2023-01-18T19:58:14.556Z,11.12
2023-01-18T20:00:46.959Z,11.13
2023-01-18T20:03:19.745Z,11.09
2023-01-18T20:05:52.089Z,11.05
2023-01-18T20:08:24.370Z,11.02
2023-01-18T20:10:57.885Z,11.00
2023-01-18T20:13:30.359Z,10.98
2023-01-18T20:16:05.380Z,10.98
2023-01-18T20:18:41.349Z,10.97
2023-01-18T20:21:15.884Z,10.95
2023-01-18T20:23:47.624Z,10.94
2023-01-18T20:26:34.971Z,10.92
2023-01-18T20:28:56.075Z,10.87
2023-01-18T20:31:29.694Z,10.84
2023-01-18T20:34:02.160Z,10.81
2023-01-18T20:36:37.771Z,10.78
2023-01-18T20:39:11.419Z,10.74
2023-01-18T20:41:44.198Z,10.70
2023-01-18T20:44:16.748Z,10.69
2023-01-18T20:46:51.052Z,10.65
2023-01-18T20:49:33.174Z,10.63
2023-01-18T20:51:58.580Z,10.61
2023-01-18T20:54:31.135Z,10.59
2023-01-18T20:57:03.589Z,10.54
2023-01-18T20:59:35.965Z,10.52
2023-01-18T21:02:08.399Z,10.50
2023-01-18T21:04:41.341Z,10.48
2023-01-18T21:07:13.843Z,10.45
2023-01-18T21:09:47.630Z,10.42
2023-01-18T21:12:20.298Z,10.38
2023-01-18T21:14:52.712Z,10.37
2023-01-18T21:17:25.067Z,10.32
2023-01-18T21:19:57.668Z,10.28
2023-01-18T21:22:30.237Z,10.25
2023-01-18T21:25:02.633Z,10.23
2023-01-18T21:27:36.755Z,10.20
2023-01-18T21:30:10.919Z,10.17
2023-01-18T21:32:45.282Z,10.15
2023-01-18T21:35:18.051Z,10.11
2023-01-18T21:37:50.334Z,10.04
2023-01-18T21:40:23.325Z,10.03
2023-01-18T21:43:13.793Z,10.00
2023-01-18T21:46:00.033Z,9.94
2023-01-18T21:48:33.214Z,9.91
2023-01-18T21:54:17.877Z,9.84
2023-01-18T21:56:52.400Z,9.72
2023-01-18T21:59:24.684Z,9.63
